Time;durP1;ratioP1;P1;durP2;ratioP2;P2;SDS_P1;SDS_P2;PMS_P1;PMS_P2;Temp;Humidity;BMP_temperature;BMP_pressure;BME280_temperature;BME280_humidity;BME280_pressure;Samples;Min_cycle;Max_cycle;Signal;HPM_P1;HPM_P2
2022/11/03 00:01:32;;;;;;;5.40;3.70;;;12.90;71.10;;;-142.21;100.00;112049.66;5019410;28;20530;-72
2022/11/03 00:04:00;;;;;;;6.60;3.80;;;12.90;70.70;;;-142.21;100.00;112049.66;5024815;28;20506;-72
2022/11/03 00:06:28;;;;;;;6.37;3.77;;;12.90;70.90;;;-142.21;100.00;112049.66;5042284;28;20451;-72
2022/11/03 00:08:59;;;;;;;7.13;3.90;;;12.90;70.70;;;-142.21;100.00;112049.66;5021271;28;20564;-72
2022/11/03 00:11:26;;;;;;;5.37;3.60;;;12.90;70.70;;;-142.21;99.74;112049.66;5028096;28;20907;-72
2022/11/03 00:13:54;;;;;;;7.20;3.83;;;12.90;70.70;;;-142.21;99.63;112049.66;5018990;28;20532;-72
2022/11/03 00:16:21;;;;;;;5.77;3.77;;;12.80;70.30;;;-142.21;98.97;112049.66;5027563;28;20842;-72
2022/11/03 00:18:48;;;;;;;7.73;4.47;;;12.80;70.10;;;-142.21;99.13;112049.66;5022383;28;20533;-72
2022/11/03 00:21:15;;;;;;;7.47;4.17;;;12.70;70.10;;;-142.21;99.42;112049.66;5012558;28;20476;-72
2022/11/03 00:23:45;;;;;;;5.60;4.00;;;12.70;70.10;;;-142.21;99.19;112049.66;5029530;28;20493;-72
2022/11/03 00:26:15;;;;;;;5.33;4.13;;;12.70;70.20;;;-142.21;98.96;112049.66;5035162;28;20447;-72
2022/11/03 00:28:45;;;;;;;5.30;3.50;;;12.70;70.20;;;-142.21;99.71;112049.66;5031253;28;20512;-72
2022/11/03 00:31:15;;;;;;;4.80;3.20;;;12.60;70.30;;;-142.21;99.71;112049.66;4984500;28;20640;-72
2022/11/03 00:33:43;;;;;;;3.73;3.30;;;12.60;70.30;;;-142.21;99.84;112049.66;4978355;28;20455;-72
2022/11/03 00:36:14;;;;;;;6.63;4.00;;;12.60;70.30;;;-142.21;99.61;112049.66;5034600;28;20535;-72
2022/11/03 00:38:43;;;;;;;5.80;3.90;;;12.50;70.30;;;-142.21;100.00;112049.66;5029912;28;20528;-72
2022/11/03 00:41:12;;;;;;;6.93;3.50;;;12.50;70.30;;;-142.21;99.92;112049.66;5021847;28;20537;-72
2022/11/03 00:43:40;;;;;;;7.60;3.47;;;12.50;70.50;;;-142.21;100.00;112049.66;5028638;28;20477;-70
2022/11/03 00:46:09;;;;;;;4.93;3.33;;;12.50;70.30;;;-142.21;99.56;112049.66;5025012;28;20997;-72
2022/11/03 00:48:38;;;;;;;5.67;3.23;;;12.50;70.10;;;-142.21;100.00;112049.66;5037304;28;20524;-72
2022/11/03 00:51:09;;;;;;;5.53;3.47;;;12.40;70.40;;;-142.21;100.00;112049.66;5023924;28;20577;-72
2022/11/03 00:53:40;;;;;;;5.87;3.73;;;12.40;70.40;;;-142.21;99.95;112049.66;5015689;28;20530;-72
2022/11/03 00:56:12;;;;;;;6.83;3.20;;;12.40;70.40;;;-142.21;99.97;112049.66;5030862;28;20460;-72
2022/11/03 00:58:41;;;;;;;5.13;3.40;;;12.40;70.40;;;-142.21;99.18;112049.66;5032669;28;20438;-73
2022/11/03 01:01:12;;;;;;;4.57;3.17;;;12.30;70.00;;;-142.21;99.30;112049.66;5033511;28;20441;-73
2022/11/03 01:06:48;;;;;;;4.97;3.20;;;12.30;70.00;;;-142.21;99.54;112049.66;5034544;28;20441;-72
2022/11/03 01:09:15;;;;;;;5.23;3.13;;;12.20;70.30;;;-142.21;99.56;112049.66;5022545;28;20530;-72
2022/11/03 01:11:56;;;;;;;4.80;3.00;;;12.20;70.20;;;-142.21;99.83;112049.66;5034649;28;20516;-73
2022/11/03 01:14:25;;;;;;;4.33;3.27;;;12.10;70.30;;;-142.21;100.00;112049.66;5015381;28;20946;-74
2022/11/03 01:17:24;;;;;;;7.40;3.77;;;12.20;70.50;;;-142.21;100.00;112049.66;5024728;28;20445;-73
2022/11/03 01:19:52;;;;;;;6.23;3.57;;;12.10;70.80;;;-142.21;100.00;112049.66;5030882;28;20452;-73
2022/11/03 01:22:20;;;;;;;6.93;3.30;;;12.10;70.60;;;-142.21;99.57;112049.66;5026668;28;20542;-73
2022/11/03 01:24:48;;;;;;;4.40;2.97;;;12.00;70.30;;;-142.21;99.49;112049.66;5016215;28;20538;-73
2022/11/03 01:27:19;;;;;;;9.57;4.10;;;12.00;70.20;;;-142.21;99.64;112049.66;5024057;28;20470;-72
2022/11/03 01:29:46;;;;;;;5.50;3.30;;;12.00;70.30;;;-142.21;100.00;112049.66;5033432;28;20527;-72
2022/11/03 01:32:14;;;;;;;4.70;3.10;;;12.00;70.30;;;-142.21;100.00;112049.66;5026517;28;20514;-73
2022/11/03 01:34:41;;;;;;;5.03;2.90;;;11.90;71.10;;;-142.21;99.81;112049.66;5028434;28;20528;-72
2022/11/03 01:37:08;;;;;;;7.50;3.00;;;11.90;70.20;;;-142.21;100.00;112049.66;5028639;28;20833;-73
2022/11/03 01:39:36;;;;;;;4.37;3.00;;;11.90;70.20;;;-142.21;100.00;112049.66;5038270;28;20477;-73
2022/11/03 01:42:03;;;;;;;4.20;3.40;;;11.90;70.20;;;-142.21;99.98;112049.66;5034634;28;20460;-72
2022/11/03 01:44:46;;;;;;;3.70;2.93;;;11.80;70.10;;;-142.21;99.98;112049.66;5015775;28;20477;-72
2022/11/03 01:47:24;;;;;;;5.50;3.57;;;11.80;70.30;;;-142.21;100.00;112049.66;5041668;28;20453;-72
2022/11/03 01:49:59;;;;;;;5.53;3.07;;;11.80;70.50;;;-142.21;100.00;112049.66;5050609;28;20449;-72
2022/11/03 01:52:35;;;;;;;4.30;3.20;;;11.80;70.40;;;-142.21;100.00;112049.66;5027714;28;20479;-72
2022/11/03 01:55:08;;;;;;;3.27;2.83;;;11.70;70.40;;;-142.21;100.00;112049.66;5020330;28;20526;-73
2022/11/03 01:57:44;;;;;;;6.10;3.20;;;11.70;70.50;;;-142.21;99.88;112049.66;5032656;28;20472;-74
2022/11/03 02:00:14;;;;;;;5.07;3.27;;;11.70;70.40;;;-142.21;100.00;112049.66;5020388;28;20914;-72
2022/11/03 02:02:43;;;;;;;4.37;2.90;;;11.70;70.40;;;-142.21;100.00;112049.66;5017319;28;20862;-73
2022/11/03 02:05:13;;;;;;;6.47;3.00;;;11.70;71.30;;;-142.21;100.00;112049.66;5033077;28;20533;-73
2022/11/03 02:07:49;;;;;;;3.87;3.10;;;11.70;70.70;;;-142.21;99.82;112049.66;5031538;28;20445;-72
2022/11/03 02:10:18;;;;;;;5.43;3.33;;;11.70;70.80;;;-142.21;100.00;112049.66;5031181;28;20483;-73
2022/11/03 02:12:45;;;;;;;7.00;3.67;;;11.60;70.70;;;-142.21;100.00;112049.66;5025646;28;20469;-73
2022/11/03 02:15:18;;;;;;;4.30;2.90;;;11.60;70.50;;;-142.21;99.71;112049.66;4997388;28;20452;-73
2022/11/03 02:17:50;;;;;;;4.73;2.93;;;11.60;70.60;;;-142.21;99.32;112049.66;5027167;28;20442;-72
2022/11/03 02:20:22;;;;;;;4.80;3.17;;;11.60;70.30;;;-142.21;99.34;112049.66;5027509;28;20543;-72
2022/11/03 02:23:20;;;;;;;5.70;3.00;;;11.50;70.30;;;-142.21;99.13;112049.66;5019029;28;20461;-73
2022/11/03 02:25:52;;;;;;;3.83;2.97;;;11.60;70.40;;;-142.21;99.05;112049.66;5024653;28;20434;-73
2022/11/03 02:28:23;;;;;;;4.70;2.90;;;11.50;70.80;;;-142.21;99.18;112049.66;5027324;28;20465;-74
2022/11/03 02:31:03;;;;;;;3.90;2.83;;;11.50;70.00;;;-142.21;99.46;112049.66;5014262;28;20914;-73
2022/11/03 02:33:52;;;;;;;4.63;2.80;;;11.50;70.10;;;-142.21;98.92;112049.66;5021233;28;20439;-73
2022/11/03 02:36:27;;;;;;;5.00;3.20;;;11.50;70.10;;;-142.21;99.29;112049.66;5029184;28;20528;-74
2022/11/03 02:39:01;;;;;;;3.43;2.70;;;11.40;70.00;;;-142.21;99.05;112049.66;5031222;28;20453;-73
2022/11/03 02:41:36;;;;;;;4.20;3.23;;;11.40;70.20;;;-142.21;99.82;112049.66;5020640;28;20473;-72
2022/11/03 02:44:08;;;;;;;6.57;2.83;;;11.40;70.40;;;-142.21;100.00;112049.66;5033272;28;20815;-73
2022/11/03 02:46:42;;;;;;;3.40;2.87;;;11.40;70.50;;;-142.21;100.00;112049.66;5031641;28;20968;-72
2022/11/03 02:49:09;;;;;;;3.80;2.90;;;11.30;70.40;;;-142.21;100.00;112049.66;5013309;28;20511;-72
2022/11/03 02:51:37;;;;;;;3.43;2.80;;;11.30;70.50;;;-142.21;100.00;112049.66;5016730;28;20568;-73
2022/11/03 02:54:15;;;;;;;2.80;2.60;;;11.20;70.80;;;-142.21;100.00;112049.66;5032785;28;20453;-72
2022/11/03 02:56:50;;;;;;;3.90;2.70;;;11.20;70.80;;;-142.21;100.00;112049.66;5026810;28;20438;-73
2022/11/03 02:59:23;;;;;;;5.40;3.20;;;11.20;70.70;;;-142.21;100.00;112049.66;5024208;28;20847;-72
2022/11/03 03:01:58;;;;;;;4.10;3.10;;;11.20;70.50;;;-142.21;100.00;112049.66;5020015;28;20563;-73
2022/11/03 03:04:37;;;;;;;4.73;2.93;;;11.20;70.60;;;-142.21;100.00;112049.66;5032242;28;20432;-72
2022/11/03 03:07:14;;;;;;;5.30;3.20;;;11.20;70.40;;;-142.21;100.00;112049.66;5025470;28;20442;-73
2022/11/03 03:09:47;;;;;;;3.73;2.83;;;11.20;70.30;;;-142.21;99.71;112049.66;5011674;28;20565;-72
2022/11/03 03:12:19;;;;;;;2.97;2.53;;;11.10;70.10;;;-142.21;99.88;112049.66;5023850;28;20496;-73
2022/11/03 03:14:50;;;;;;;4.80;2.97;;;11.10;70.10;;;-142.21;100.00;112049.66;5031843;28;20465;-72
2022/11/03 03:17:27;;;;;;;3.70;3.00;;;11.20;70.20;;;-142.21;100.00;112049.66;5030722;28;20786;-72
2022/11/03 03:20:03;;;;;;;6.07;3.03;;;11.10;70.20;;;-142.21;100.00;112049.66;5032841;28;20543;-72
2022/11/03 03:22:44;;;;;;;3.97;3.00;;;11.10;70.10;;;-142.21;100.00;112049.66;5031712;28;20525;-72
2022/11/03 03:25:19;;;;;;;4.93;2.77;;;11.00;70.30;;;-142.21;100.00;112049.66;5028239;28;20961;-72
2022/11/03 03:27:53;;;;;;;4.70;2.70;;;11.00;70.50;;;-142.21;100.00;112049.66;5012631;28;20520;-72
2022/11/03 03:30:22;;;;;;;5.07;2.80;;;11.00;70.70;;;-142.21;100.00;112049.66;5025105;28;20476;-72
2022/11/03 03:32:52;;;;;;;5.43;3.17;;;10.90;70.80;;;-142.21;100.00;112049.66;5026610;28;20571;-72
2022/11/03 03:35:25;;;;;;;4.90;2.90;;;10.90;70.70;;;-142.21;100.00;112049.66;5014788;28;20450;-72
2022/11/03 03:38:00;;;;;;;4.30;2.97;;;10.80;70.60;;;-142.21;100.00;112049.66;5013369;28;20481;-72
2022/11/03 03:40:32;;;;;;;4.00;3.53;;;10.90;70.70;;;-142.21;100.00;112049.66;5013080;28;20537;-72
2022/11/03 03:43:04;;;;;;;6.00;3.67;;;10.80;70.50;;;-142.21;100.00;112049.66;5012925;28;20469;-73
2022/11/03 03:45:34;;;;;;;6.23;3.30;;;10.80;70.60;;;-142.21;100.00;112049.66;5029934;28;20507;-73
2022/11/03 03:48:03;;;;;;;4.17;3.10;;;10.80;70.60;;;-142.21;100.00;112049.66;5027747;28;20474;-73
2022/11/03 03:50:37;;;;;;;3.13;2.83;;;10.80;70.60;;;-142.21;100.00;112049.66;5031276;28;20485;-73
2022/11/03 03:53:09;;;;;;;6.60;3.60;;;10.80;70.70;;;-142.21;100.00;112049.66;5012591;28;20505;-70
2022/11/03 03:55:43;;;;;;;6.67;3.33;;;10.80;70.80;;;-142.21;100.00;112049.66;5021385;28;20477;-73
2022/11/03 03:58:14;;;;;;;4.03;3.00;;;10.80;70.90;;;-142.21;100.00;112049.66;5015797;28;20477;-73
2022/11/03 04:00:42;;;;;;;4.53;3.00;;;10.90;71.10;;;-142.21;100.00;112049.66;5026781;28;20853;-72
2022/11/03 04:03:17;;;;;;;3.60;3.00;;;10.90;71.00;;;-142.21;100.00;112049.66;5021551;28;20445;-73
2022/11/03 04:05:45;;;;;;;6.37;3.13;;;10.90;71.10;;;-142.21;100.00;112049.66;5021376;28;20445;-72
2022/11/03 04:08:15;;;;;;;8.03;3.27;;;10.80;70.90;;;-142.21;100.00;112049.66;5022214;28;20450;-72
2022/11/03 04:22:15;;;;;;;6.00;4.13;;;10.80;70.90;;;-142.21;100.00;112049.66;5011390;28;20588;-72
2022/11/03 04:24:35;;;;;;;5.60;3.20;;;10.80;71.00;;;-142.21;100.00;112049.66;4995637;28;20454;-72
2022/11/03 04:27:29;;;;;;;6.23;3.47;;;10.80;71.10;;;-142.21;100.00;112049.66;5018769;28;20956;-72
2022/11/03 04:30:10;;;;;;;6.70;2.80;;;10.80;71.10;;;-142.21;100.00;112049.66;4997040;28;20441;-72
2022/11/03 04:32:37;;;;;;;6.87;3.63;;;10.70;71.50;;;-142.21;100.00;112049.66;5025229;28;20568;-72
2022/11/03 04:35:17;;;;;;;5.30;3.40;;;10.80;70.70;;;-142.21;100.00;112049.66;5026162;28;20457;-72
2022/11/03 04:37:45;;;;;;;5.30;2.60;;;10.70;70.70;;;-142.21;100.00;112049.66;5026723;28;20437;-73
2022/11/03 04:40:17;;;;;;;4.00;3.30;;;10.70;70.50;;;-142.21;100.00;112049.66;5023174;28;20504;-73
2022/11/03 04:42:46;;;;;;;5.90;3.00;;;10.70;70.60;;;-142.21;100.00;112049.66;5017238;28;20496;-72
2022/11/03 04:45:26;;;;;;;3.37;2.80;;;10.70;70.50;;;-142.21;100.00;112049.66;5015519;28;20478;-72
2022/11/03 04:47:53;;;;;;;3.67;3.00;;;10.70;70.60;;;-142.21;100.00;112049.66;5027401;28;20988;-72
2022/11/03 04:50:23;;;;;;;3.60;3.00;;;10.70;70.40;;;-142.21;100.00;112049.66;5035413;28;20920;-72
2022/11/03 04:52:56;;;;;;;4.27;2.80;;;10.70;70.50;;;-142.21;100.00;112049.66;5018909;28;20485;-72
2022/11/03 04:55:23;;;;;;;5.10;3.00;;;10.70;70.90;;;-142.21;100.00;112049.66;5023705;28;20816;-72
2022/11/03 04:57:57;;;;;;;3.57;2.70;;;10.70;70.70;;;-142.21;100.00;112049.66;5021453;28;20454;-72
2022/11/03 05:00:26;;;;;;;3.87;2.57;;;10.60;70.80;;;-142.21;100.00;112049.66;5017567;28;20437;-71
2022/11/03 05:02:53;;;;;;;6.43;3.10;;;10.60;70.60;;;-142.21;100.00;112049.66;5022618;28;20528;-73
2022/11/03 05:05:23;;;;;;;3.30;3.00;;;10.60;70.70;;;-142.21;100.00;112049.66;5019638;28;20532;-72
2022/11/03 05:07:53;;;;;;;4.43;3.10;;;10.60;70.70;;;-142.21;100.00;112049.66;5016168;28;20542;-72
2022/11/03 05:10:26;;;;;;;5.10;2.70;;;10.50;70.60;;;-142.21;100.00;112049.66;5016274;28;20480;-72
2022/11/03 05:12:55;;;;;;;5.03;2.70;;;10.50;70.60;;;-142.21;100.00;112049.66;5019381;28;20477;-73
2022/11/03 05:15:40;;;;;;;5.47;3.10;;;10.50;70.60;;;-142.21;100.00;112049.66;5016024;28;20468;-73
2022/11/03 05:18:20;;;;;;;4.03;3.20;;;10.50;70.60;;;-142.21;100.00;112049.66;4977167;28;20446;-72
2022/11/03 05:20:52;;;;;;;5.33;3.57;;;10.50;70.80;;;-142.21;100.00;112049.66;5013977;28;20560;-73
2022/11/03 05:23:25;;;;;;;5.77;4.07;;;10.50;70.80;;;-142.21;100.00;112049.66;5026555;28;20437;-72
2022/11/03 05:25:56;;;;;;;4.70;3.03;;;10.40;70.70;;;-142.21;100.00;112049.66;5023777;28;20465;-73
2022/11/03 05:28:28;;;;;;;5.50;3.13;;;10.40;70.50;;;-142.21;100.00;112049.66;5051164;28;20973;-73
2022/11/03 05:30:57;;;;;;;5.47;3.40;;;10.40;70.70;;;-142.21;100.00;112049.66;5036982;28;20437;-72
2022/11/03 05:33:29;;;;;;;4.00;3.50;;;10.40;71.00;;;-142.21;100.00;112049.66;5028458;28;20517;-73
2022/11/03 05:36:00;;;;;;;5.20;3.60;;;10.40;70.90;;;-142.21;100.00;112049.66;5037275;28;20430;-75
2022/11/03 05:38:32;;;;;;;4.60;3.60;;;10.40;71.00;;;-142.21;100.00;112049.66;5031648;28;20449;-74
2022/11/03 05:41:01;;;;;;;8.67;4.00;;;10.40;71.30;;;-142.21;100.00;112049.66;5034680;28;20464;-73
2022/11/03 05:43:29;;;;;;;6.20;3.77;;;10.40;71.30;;;-142.21;100.00;112049.66;5028287;28;20537;-74
2022/11/03 05:46:02;;;;;;;6.43;3.93;;;10.40;71.40;;;-142.21;100.00;112049.66;5014696;28;20469;-73
2022/11/03 05:48:38;;;;;;;4.47;3.47;;;10.40;71.60;;;-142.21;100.00;112049.66;5013924;28;20521;-74
2022/11/03 05:51:19;;;;;;;4.33;3.37;;;10.40;71.30;;;-142.21;100.00;112049.66;5019757;28;21036;-73
2022/11/03 05:53:49;;;;;;;5.67;3.63;;;10.40;71.30;;;-142.21;100.00;112049.66;5015612;28;20502;-73
2022/11/03 05:56:20;;;;;;;4.33;2.83;;;10.40;71.20;;;-142.21;100.00;112049.66;4963119;28;20558;-73
2022/11/03 05:58:50;;;;;;;7.60;3.97;;;10.40;71.30;;;-142.21;100.00;112049.66;5023675;28;20488;-73
2022/11/03 06:01:26;;;;;;;4.83;3.40;;;10.40;71.20;;;-142.21;100.00;112049.66;4983293;28;20938;-73
2022/11/03 06:03:53;;;;;;;3.57;3.10;;;10.40;71.20;;;-142.21;100.00;112049.66;5025918;28;20437;-73
2022/11/03 06:06:25;;;;;;;5.60;3.50;;;10.40;71.20;;;-142.21;100.00;112049.66;5031988;28;20481;-73
2022/11/03 06:08:53;;;;;;;7.33;3.80;;;10.40;71.80;;;-142.21;100.00;112049.66;5033154;28;20576;-74
2022/11/03 06:11:31;;;;;;;4.00;3.47;;;10.40;71.70;;;-142.21;100.00;112049.66;5026378;28;20441;-71
2022/11/03 06:13:59;;;;;;;6.90;3.37;;;10.40;71.70;;;-142.21;100.00;112049.66;5015340;28;20905;-72
2022/11/03 06:16:40;;;;;;;5.03;3.43;;;10.40;71.80;;;-142.21;100.00;112049.66;5014619;28;20492;-72
2022/11/03 06:19:25;;;;;;;6.37;4.00;;;10.40;72.10;;;-142.21;100.00;112049.66;5033162;28;20950;-71
2022/11/03 06:21:57;;;;;;;6.50;3.80;;;10.40;72.10;;;-142.21;100.00;112049.66;5032620;28;20444;-72
2022/11/03 06:24:31;;;;;;;4.40;3.30;;;10.40;72.20;;;-142.21;100.00;112049.66;5018725;28;20948;-72
2022/11/03 06:26:58;;;;;;;7.07;4.40;;;10.40;72.40;;;-142.21;100.00;112049.66;5018318;28;20439;-72
2022/11/03 06:29:26;;;;;;;3.93;3.13;;;10.40;72.20;;;-142.21;100.00;112049.66;5022211;28;20928;-73
2022/11/03 06:31:57;;;;;;;6.13;3.60;;;10.40;72.30;;;-142.21;100.00;112049.66;5022539;28;20573;-69
2022/11/03 06:34:38;;;;;;;4.27;3.20;;;10.40;72.30;;;-142.21;100.00;112049.66;5016522;28;20431;-70
2022/11/03 06:37:21;;;;;;;7.23;3.70;;;10.50;72.40;;;-142.21;100.00;112049.66;5013653;28;20438;-70
2022/11/03 06:39:49;;;;;;;6.23;3.90;;;10.50;72.30;;;-142.21;100.00;112049.66;5013831;28;20517;-70
2022/11/03 06:42:21;;;;;;;8.47;4.63;;;10.50;72.40;;;-142.21;100.00;112049.66;5026255;28;20456;-70
2022/11/03 06:44:50;;;;;;;5.73;4.40;;;10.60;73.40;;;-142.21;100.00;112049.66;5032648;28;20430;-70
2022/11/03 06:47:25;;;;;;;5.23;4.50;;;10.60;72.70;;;-142.21;100.00;112049.66;5028975;28;20465;-69
2022/11/03 06:49:55;;;;;;;5.00;4.00;;;10.60;72.70;;;-142.21;100.00;112049.66;5012084;28;20912;-70
2022/11/03 06:52:32;;;;;;;5.77;3.67;;;10.70;73.00;;;-142.21;100.00;112049.66;5029306;28;20435;-70
2022/11/03 06:55:29;;;;;;;7.07;3.80;;;10.60;73.00;;;-142.21;100.00;112049.66;5023952;28;20521;-70
2022/11/03 06:58:02;;;;;;;5.13;4.40;;;10.60;73.00;;;-142.21;100.00;112049.66;4985449;28;20497;-70
2022/11/03 07:00:31;;;;;;;5.10;3.50;;;10.70;73.10;;;-142.21;100.00;112049.66;4979335;28;22220;-70
2022/11/03 07:03:08;;;;;;;8.87;4.13;;;10.70;73.00;;;-142.21;100.00;112049.66;5027698;28;20469;-70
2022/11/03 07:05:37;;;;;;;4.90;3.40;;;10.70;73.00;;;-142.21;100.00;112049.66;5030640;28;20437;-69
2022/11/03 07:08:22;;;;;;;5.77;4.23;;;10.80;73.20;;;-142.21;100.00;112049.66;5032650;28;20536;-71
2022/11/03 07:11:00;;;;;;;7.03;3.87;;;10.90;74.10;;;-142.21;100.00;112049.66;5031606;28;20487;-70
2022/11/03 07:13:31;;;;;;;6.40;4.20;;;10.90;73.30;;;-142.21;100.00;112049.66;5022745;28;20566;-71
2022/11/03 07:15:59;;;;;;;5.27;4.23;;;11.00;73.40;;;-142.21;100.00;112049.66;5019739;28;20442;-70
2022/11/03 07:18:34;;;;;;;6.07;4.30;;;11.00;73.40;;;-142.21;100.00;112049.66;4976233;28;20442;-71
2022/11/03 07:21:07;;;;;;;6.20;3.53;;;11.00;73.40;;;-142.21;100.00;112049.66;5021032;28;20449;-71
2022/11/03 07:23:34;;;;;;;6.57;4.07;;;11.10;73.60;;;-142.21;100.00;112049.66;5021216;28;20434;-71
2022/11/03 07:26:02;;;;;;;9.47;4.00;;;11.20;73.60;;;-142.21;100.00;112049.66;5022663;28;20440;-70
2022/11/03 07:28:37;;;;;;;5.60;3.70;;;11.20;73.90;;;-142.21;100.00;112049.66;5020834;28;20867;-70
2022/11/03 07:31:15;;;;;;;8.43;4.10;;;11.30;74.40;;;-142.21;100.00;112049.66;5008404;28;20993;-70
2022/11/03 07:33:45;;;;;;;5.97;4.20;;;11.40;74.70;;;-142.21;100.00;112049.66;5018830;28;20462;-71
2022/11/03 07:36:19;;;;;;;9.67;4.43;;;11.40;74.40;;;-142.21;100.00;112049.66;5025928;28;20535;-71
2022/11/03 07:38:51;;;;;;;6.50;4.63;;;11.50;74.60;;;-142.21;100.00;112049.66;5031128;28;20970;-70
2022/11/03 07:41:22;;;;;;;5.53;4.60;;;11.50;74.70;;;-142.21;100.00;112049.66;5032412;28;20429;-71
2022/11/03 07:43:55;;;;;;;4.70;3.63;;;11.50;74.90;;;-142.21;100.00;112049.66;5020683;28;20537;-70
2022/11/03 07:46:24;;;;;;;8.47;3.90;;;11.50;74.80;;;-142.21;100.00;112049.66;5012344;28;20470;-71
2022/11/03 07:48:56;;;;;;;4.90;3.93;;;11.50;75.00;;;-142.21;100.00;112049.66;5011804;28;20443;-71
2022/11/03 07:51:28;;;;;;;5.43;4.13;;;11.60;75.00;;;-142.21;100.00;112049.66;4994746;28;21114;-71
2022/11/03 07:54:04;;;;;;;7.17;4.23;;;11.60;75.00;;;-142.21;100.00;112049.66;4994598;28;20470;-71
2022/11/03 07:56:39;;;;;;;6.90;4.00;;;11.80;75.10;;;-142.21;100.00;112049.66;5030213;28;20433;-71
2022/11/03 07:59:20;;;;;;;6.67;4.33;;;11.90;74.80;;;-142.21;100.00;112049.66;5031923;28;20976;-70
2022/11/03 08:01:51;;;;;;;9.40;4.57;;;12.00;75.00;;;-142.21;100.00;112049.66;5035156;28;20433;-71
2022/11/03 08:04:24;;;;;;;5.40;3.97;;;12.00;74.60;;;-142.21;100.00;112049.66;5036168;28;20528;-70
2022/11/03 08:06:54;;;;;;;5.83;4.40;;;12.10;74.60;;;-142.21;100.00;112049.66;5035328;28;20425;-70
2022/11/03 08:09:21;;;;;;;7.53;4.20;;;12.20;74.70;;;-142.21;100.00;112049.66;5024066;28;20470;-71
2022/11/03 08:11:49;;;;;;;8.20;4.43;;;12.30;74.80;;;-142.21;100.00;112049.66;4998147;28;20474;-71
2022/11/03 08:14:16;;;;;;;7.73;4.97;;;12.30;74.80;;;-142.21;100.00;112049.66;5015790;28;20487;-71
2022/11/03 08:16:43;;;;;;;5.63;3.97;;;12.50;74.90;;;-142.21;100.00;112049.66;5017898;28;20445;-71
2022/11/03 08:19:10;;;;;;;5.00;4.13;;;12.50;74.30;;;-142.21;100.00;112049.66;5035957;28;20642;-71
2022/11/03 08:21:48;;;;;;;6.00;4.23;;;12.60;74.40;;;-142.21;100.00;112049.66;5034902;28;20547;-71
2022/11/03 08:24:15;;;;;;;5.40;3.77;;;12.60;74.00;;;-142.21;100.00;112049.66;5035925;28;20431;-71
2022/11/03 08:26:45;;;;;;;5.87;4.03;;;12.70;73.80;;;-142.21;100.00;112049.66;5035051;28;21028;-71
2022/11/03 08:29:16;;;;;;;6.47;4.70;;;12.80;73.80;;;-142.21;100.00;112049.66;5035192;28;20451;-71
2022/11/03 08:31:43;;;;;;;5.57;4.07;;;12.80;73.80;;;-142.21;100.00;112049.66;5035086;28;20449;-71
2022/11/03 08:34:10;;;;;;;7.40;5.23;;;12.90;74.10;;;-142.21;100.00;112049.66;5035603;28;20542;-71
2022/11/03 08:36:39;;;;;;;8.13;6.20;;;13.00;73.90;;;-142.21;100.00;112049.66;5034872;28;20527;-71
2022/11/03 08:39:06;;;;;;;9.17;6.40;;;13.10;73.90;;;-142.21;100.00;112049.66;5035542;28;20445;-71
2022/11/03 08:41:34;;;;;;;8.90;5.87;;;13.20;73.80;;;-142.21;100.00;112049.66;5035746;28;20445;-71
2022/11/03 08:44:01;;;;;;;5.77;4.83;;;13.30;73.90;;;-142.21;100.00;112049.66;5017151;28;20448;-71
2022/11/03 08:46:28;;;;;;;7.23;4.97;;;13.40;73.90;;;-142.21;100.00;112049.66;5035188;28;20493;-71
2022/11/03 08:48:56;;;;;;;12.33;9.10;;;13.60;74.00;;;-142.21;100.00;112049.66;5034649;28;20449;-72
2022/11/03 08:51:23;;;;;;;14.23;8.27;;;13.70;73.80;;;-142.21;100.00;112049.66;5035209;28;20551;-71
2022/11/03 08:53:52;;;;;;;14.63;9.73;;;13.90;73.60;;;-142.21;100.00;112049.66;5034795;28;20484;-71
2022/11/03 08:56:21;;;;;;;10.90;7.20;;;13.90;73.50;;;-142.21;100.00;112049.66;5036055;28;20484;-71
2022/11/03 08:58:49;;;;;;;9.23;7.03;;;14.00;73.00;;;-142.21;100.00;112049.66;5035678;28;20821;-71
2022/11/03 09:01:16;;;;;;;13.87;10.57;;;14.00;72.80;;;-142.21;100.00;112049.66;5035976;28;20536;-71
2022/11/03 09:03:43;;;;;;;12.70;9.13;;;14.10;72.50;;;-142.21;100.00;112049.66;5035902;28;20479;-71
2022/11/03 09:06:10;;;;;;;12.87;7.77;;;14.10;72.20;;;-142.21;100.00;112049.66;5035417;28;20445;-71
2022/11/03 09:08:38;;;;;;;10.57;7.87;;;14.10;72.60;;;-142.21;100.00;112049.66;5036538;28;20515;-71
2022/11/03 09:11:06;;;;;;;8.77;6.10;;;14.20;72.70;;;-142.21;100.00;112049.66;5037185;28;20429;-70
2022/11/03 09:13:33;;;;;;;8.40;4.87;;;14.30;72.50;;;-142.21;100.00;112049.66;5037133;28;20483;-71
2022/11/03 09:16:01;;;;;;;6.63;4.53;;;14.40;72.00;;;-142.21;100.00;112049.66;5052908;28;20479;-70
2022/11/03 09:18:28;;;;;;;7.40;5.10;;;14.50;71.90;;;-142.21;100.00;112049.66;5038829;28;20457;-80
2022/11/03 09:20:55;;;;;;;8.83;5.90;;;14.50;71.70;;;-142.21;100.00;112049.66;5015956;28;20462;-71
2022/11/03 09:23:22;;;;;;;8.10;6.07;;;14.60;71.50;;;-142.21;100.00;112049.66;5033713;28;20457;-71
2022/11/03 09:25:49;;;;;;;8.33;5.60;;;14.70;71.40;;;-142.21;100.00;112049.66;5038630;28;20481;-71
2022/11/03 09:28:18;;;;;;;6.93;5.87;;;14.70;72.20;;;-142.21;100.00;112049.66;5027161;28;20470;-71
2022/11/03 09:30:45;;;;;;;8.90;5.70;;;14.80;71.80;;;-142.21;100.00;112049.66;5014741;28;20524;-71
2022/11/03 09:33:12;;;;;;;8.97;5.13;;;14.90;72.20;;;-142.21;100.00;112049.66;5014716;28;20486;-71
2022/11/03 09:35:39;;;;;;;8.50;5.40;;;15.00;71.90;;;-142.21;100.00;112049.66;4964206;28;20446;-70
2022/11/03 09:38:07;;;;;;;9.10;5.50;;;15.00;72.00;;;-142.21;100.00;112049.66;5014833;28;20489;-71
2022/11/03 09:40:36;;;;;;;6.90;5.20;;;15.10;72.40;;;-142.21;100.00;112049.66;5014550;28;20464;-71
2022/11/03 09:43:03;;;;;;;7.33;4.90;;;15.10;72.50;;;-142.21;100.00;112049.66;5014410;28;20871;-71
2022/11/03 09:45:32;;;;;;;8.43;4.40;;;15.20;72.00;;;-142.21;100.00;112049.66;5014559;28;20937;-71
2022/11/03 09:48:01;;;;;;;9.43;4.90;;;15.20;71.60;;;-142.21;100.00;112049.66;4978631;28;20462;-71
2022/11/03 09:50:28;;;;;;;6.60;4.70;;;15.20;71.70;;;-142.21;100.00;112049.66;5014564;28;20544;-71
2022/11/03 09:52:56;;;;;;;7.30;4.30;;;15.20;71.70;;;-142.21;100.00;112049.66;5013748;28;20529;-71
2022/11/03 09:55:26;;;;;;;7.70;4.60;;;15.30;71.70;;;-142.21;100.00;112049.66;5022582;28;20441;-71
2022/11/03 09:57:57;;;;;;;8.07;4.17;;;15.30;71.60;;;-142.21;100.00;112049.66;5033600;28;20503;-71
2022/11/03 10:00:25;;;;;;;8.77;4.33;;;15.30;71.50;;;-142.21;100.00;112049.66;5034093;28;20521;-71
2022/11/03 10:02:54;;;;;;;9.20;4.33;;;15.40;71.50;;;-142.21;100.00;112049.66;5032898;28;20507;-70
2022/11/03 10:05:25;;;;;;;5.77;3.47;;;15.40;71.40;;;-142.21;100.00;112049.66;5034006;28;20537;-71
2022/11/03 10:07:58;;;;;;;5.87;3.97;;;15.40;71.30;;;-142.21;100.00;112049.66;4983756;28;20529;-71
2022/11/03 10:10:26;;;;;;;6.03;3.60;;;15.50;71.40;;;-142.21;100.00;112049.66;5033332;28;20973;-71
2022/11/03 10:12:54;;;;;;;5.97;3.57;;;15.50;71.40;;;-142.21;99.88;112049.66;5014341;28;20437;-71
2022/11/03 10:15:24;;;;;;;4.83;2.97;;;15.50;71.10;;;-142.21;99.00;112049.66;5033726;28;20869;-71
2022/11/03 10:17:55;;;;;;;4.27;2.90;;;15.50;70.60;;;-142.21;98.47;112049.66;5020991;28;20458;-71
2022/11/03 10:20:23;;;;;;;4.57;3.07;;;15.50;70.10;;;-142.21;98.71;112049.66;5014182;28;20872;-70
2022/11/03 10:22:54;;;;;;;8.17;3.30;;;15.60;70.20;;;-142.21;98.19;112049.66;5013352;28;20486;-71
2022/11/03 10:25:36;;;;;;;6.50;3.13;;;15.60;69.90;;;-142.21;97.93;112049.66;5013501;28;20901;-71
2022/11/03 10:28:17;;;;;;;5.90;3.63;;;15.70;70.10;;;-142.21;98.48;112049.66;5013451;28;20793;-71